Whitefish Falls, Canada
Current Conditions -  °F | °C
As of 9:00 AM on Monday 26 Jan 2015 (Local Time) from CYZE Reporting Station
Clear Clear  
Wind Chill: -14°   Ceiling: Unl
Heat Index:   Visibility: 9mi
Dew Point: -4°   Wind: 9mph
Humidity: 78%   Direction: 70°ENE
Pressure: 30.05"   Gusts: NA
Location:  46.1°N, 81.72°W
Report Text: CYZE 261400Z AUTO 07008KT 9SM CLR M17/M20 A3005 RMK ICG SLP193
Loading
Personal Weather Stations






























Interactive Weather Map New forecast layout! Learn more

10-Day Weather Forecast

Advertisements
Track Severe Weather on mobile